sensor_id;sensor_type;location;lat;lon;timestamp;P1;durP1;ratioP1;P2;durP2;ratioP2
41233;SDS011;26968;42.686;23.352;2022-07-29T00:02:25;13.10;;;9.25;;
41233;SDS011;26968;42.686;23.352;2022-07-29T00:04:51;15.00;;;9.15;;
41233;SDS011;26968;42.686;23.352;2022-07-29T00:07:16;16.40;;;9.30;;
41233;SDS011;26968;42.686;23.352;2022-07-29T00:09:42;13.68;;;8.95;;
41233;SDS011;26968;42.686;23.352;2022-07-29T00:12:07;17.65;;;10.05;;
41233;SDS011;26968;42.686;23.352;2022-07-29T00:14:33;13.75;;;9.40;;
41233;SDS011;26968;42.686;23.352;2022-07-29T00:16:58;13.98;;;9.73;;
41233;SDS011;26968;42.686;23.352;2022-07-29T00:19:24;14.23;;;9.35;;
41233;SDS011;26968;42.686;23.352;2022-07-29T00:21:49;14.35;;;9.30;;
41233;SDS011;26968;42.686;23.352;2022-07-29T00:24:14;11.18;;;9.52;;
41233;SDS011;26968;42.686;23.352;2022-07-29T00:26:40;12.75;;;9.55;;
41233;SDS011;26968;42.686;23.352;2022-07-29T00:29:05;11.10;;;8.65;;
41233;SDS011;26968;42.686;23.352;2022-07-29T00:31:31;12.95;;;8.93;;
41233;SDS011;26968;42.686;23.352;2022-07-29T00:33:56;15.00;;;8.45;;
41233;SDS011;26968;42.686;23.352;2022-07-29T00:36:22;12.35;;;9.18;;
41233;SDS011;26968;42.686;23.352;2022-07-29T00:38:48;11.90;;;10.13;;
41233;SDS011;26968;42.686;23.352;2022-07-29T00:41:14;13.25;;;9.52;;
41233;SDS011;26968;42.686;23.352;2022-07-29T00:43:39;14.30;;;9.27;;
41233;SDS011;26968;42.686;23.352;2022-07-29T00:46:05;16.38;;;9.55;;
41233;SDS011;26968;42.686;23.352;2022-07-29T00:48:31;16.70;;;9.77;;
41233;SDS011;26968;42.686;23.352;2022-07-29T00:50:57;15.48;;;9.73;;
41233;SDS011;26968;42.686;23.352;2022-07-29T00:53:23;11.70;;;9.63;;
41233;SDS011;26968;42.686;23.352;2022-07-29T00:55:49;17.40;;;10.48;;
41233;SDS011;26968;42.686;23.352;2022-07-29T00:58:16;15.93;;;11.05;;
41233;SDS011;26968;42.686;23.352;2022-07-29T01:00:42;15.65;;;10.40;;
41233;SDS011;26968;42.686;23.352;2022-07-29T01:03:08;25.45;;;13.02;;
41233;SDS011;26968;42.686;23.352;2022-07-29T01:05:33;17.52;;;12.65;;
41233;SDS011;26968;42.686;23.352;2022-07-29T01:08:00;19.05;;;14.68;;
41233;SDS011;26968;42.686;23.352;2022-07-29T01:10:26;17.42;;;14.15;;
41233;SDS011;26968;42.686;23.352;2022-07-29T01:12:53;21.63;;;14.60;;
41233;SDS011;26968;42.686;23.352;2022-07-29T01:15:21;18.55;;;14.20;;
41233;SDS011;26968;42.686;23.352;2022-07-29T01:32:07;23.88;;;16.67;;
41233;SDS011;26968;42.686;23.352;2022-07-29T01:34:53;26.80;;;15.80;;
41233;SDS011;26968;42.686;23.352;2022-07-29T01:37:39;23.30;;;15.50;;
41233;SDS011;26968;42.686;23.352;2022-07-29T01:40:33;19.63;;;15.32;;
41233;SDS011;26968;42.686;23.352;2022-07-29T01:43:00;20.40;;;14.48;;
41233;SDS011;26968;42.686;23.352;2022-07-29T01:45:37;18.77;;;14.18;;
41233;SDS011;26968;42.686;23.352;2022-07-29T01:50:42;22.30;;;14.93;;
41233;SDS011;26968;42.686;23.352;2022-07-29T01:53:13;17.88;;;14.25;;
41233;SDS011;26968;42.686;23.352;2022-07-29T01:55:44;28.75;;;15.35;;
41233;SDS011;26968;42.686;23.352;2022-07-29T01:58:11;19.35;;;14.82;;
41233;SDS011;26968;42.686;23.352;2022-07-29T02:00:39;22.40;;;14.13;;
41233;SDS011;26968;42.686;23.352;2022-07-29T02:03:07;21.25;;;14.98;;
41233;SDS011;26968;42.686;23.352;2022-07-29T02:05:36;20.77;;;14.27;;
41233;SDS011;26968;42.686;23.352;2022-07-29T02:08:05;21.92;;;14.77;;
41233;SDS011;26968;42.686;23.352;2022-07-29T02:10:33;20.95;;;14.57;;
41233;SDS011;26968;42.686;23.352;2022-07-29T02:13:00;20.20;;;14.68;;
41233;SDS011;26968;42.686;23.352;2022-07-29T02:15:28;18.92;;;14.30;;
41233;SDS011;26968;42.686;23.352;2022-07-29T02:18:41;20.50;;;14.63;;
41233;SDS011;26968;42.686;23.352;2022-07-29T02:20:48;18.53;;;13.43;;
41233;SDS011;26968;42.686;23.352;2022-07-29T02:23:17;16.10;;;13.05;;
41233;SDS011;26968;42.686;23.352;2022-07-29T02:25:44;21.95;;;14.52;;
41233;SDS011;26968;42.686;23.352;2022-07-29T02:28:14;21.30;;;13.88;;
41233;SDS011;26968;42.686;23.352;2022-07-29T02:30:41;20.55;;;12.77;;
41233;SDS011;26968;42.686;23.352;2022-07-29T02:33:08;23.80;;;14.20;;
41233;SDS011;26968;42.686;23.352;2022-07-29T02:35:38;19.42;;;14.30;;
41233;SDS011;26968;42.686;23.352;2022-07-29T02:38:05;21.83;;;14.70;;
41233;SDS011;26968;42.686;23.352;2022-07-29T02:40:51;19.92;;;12.90;;
41233;SDS011;26968;42.686;23.352;2022-07-29T02:43:18;23.08;;;13.85;;
41233;SDS011;26968;42.686;23.352;2022-07-29T02:45:46;18.60;;;13.13;;
41233;SDS011;26968;42.686;23.352;2022-07-29T02:48:16;21.47;;;14.03;;
41233;SDS011;26968;42.686;23.352;2022-07-29T02:50:48;20.10;;;14.43;;
41233;SDS011;26968;42.686;23.352;2022-07-29T02:55:45;22.88;;;14.20;;
41233;SDS011;26968;42.686;23.352;2022-07-29T03:00:59;20.15;;;13.70;;
41233;SDS011;26968;42.686;23.352;2022-07-29T03:03:32;19.27;;;13.48;;
41233;SDS011;26968;42.686;23.352;2022-07-29T03:06:01;17.70;;;13.07;;
41233;SDS011;26968;42.686;23.352;2022-07-29T03:08:28;20.50;;;13.13;;
41233;SDS011;26968;42.686;23.352;2022-07-29T03:10:55;21.52;;;13.20;;
41233;SDS011;26968;42.686;23.352;2022-07-29T03:13:22;20.55;;;11.80;;
41233;SDS011;26968;42.686;23.352;2022-07-29T03:15:48;22.20;;;12.20;;
41233;SDS011;26968;42.686;23.352;2022-07-29T03:18:15;15.98;;;11.90;;
41233;SDS011;26968;42.686;23.352;2022-07-29T03:20:40;18.02;;;12.70;;
41233;SDS011;26968;42.686;23.352;2022-07-29T03:23:07;23.17;;;12.88;;
41233;SDS011;26968;42.686;23.352;2022-07-29T03:25:33;16.88;;;13.50;;
41233;SDS011;26968;42.686;23.352;2022-07-29T03:27:59;28.75;;;12.43;;
41233;SDS011;26968;42.686;23.352;2022-07-29T03:30:24;19.08;;;13.40;;
41233;SDS011;26968;42.686;23.352;2022-07-29T03:32:50;17.00;;;12.90;;
41233;SDS011;26968;42.686;23.352;2022-07-29T03:35:16;18.98;;;13.48;;
41233;SDS011;26968;42.686;23.352;2022-07-29T03:37:42;20.13;;;11.52;;
41233;SDS011;26968;42.686;23.352;2022-07-29T03:40:09;16.25;;;11.88;;
41233;SDS011;26968;42.686;23.352;2022-07-29T03:42:39;16.23;;;12.77;;
41233;SDS011;26968;42.686;23.352;2022-07-29T03:45:07;20.10;;;12.63;;
41233;SDS011;26968;42.686;23.352;2022-07-29T03:47:39;15.38;;;12.10;;
41233;SDS011;26968;42.686;23.352;2022-07-29T03:50:08;21.30;;;11.80;;
41233;SDS011;26968;42.686;23.352;2022-07-29T03:52:38;22.58;;;12.07;;
41233;SDS011;26968;42.686;23.352;2022-07-29T03:55:04;18.35;;;11.95;;
41233;SDS011;26968;42.686;23.352;2022-07-29T03:57:30;19.27;;;12.18;;
41233;SDS011;26968;42.686;23.352;2022-07-29T03:59:57;13.27;;;11.30;;
41233;SDS011;26968;42.686;23.352;2022-07-29T04:02:23;17.90;;;11.85;;
41233;SDS011;26968;42.686;23.352;2022-07-29T04:04:50;15.90;;;11.63;;
41233;SDS011;26968;42.686;23.352;2022-07-29T04:07:16;22.33;;;12.10;;
41233;SDS011;26968;42.686;23.352;2022-07-29T04:09:41;21.73;;;12.73;;
41233;SDS011;26968;42.686;23.352;2022-07-29T04:12:07;21.05;;;11.90;;
41233;SDS011;26968;42.686;23.352;2022-07-29T04:14:33;26.10;;;12.48;;
41233;SDS011;26968;42.686;23.352;2022-07-29T04:17:00;19.83;;;12.15;;
41233;SDS011;26968;42.686;23.352;2022-07-29T04:19:26;19.90;;;12.45;;
41233;SDS011;26968;42.686;23.352;2022-07-29T04:21:52;19.13;;;12.85;;
41233;SDS011;26968;42.686;23.352;2022-07-29T04:24:17;19.02;;;12.50;;
41233;SDS011;26968;42.686;23.352;2022-07-29T04:26:43;18.58;;;12.98;;
41233;SDS011;26968;42.686;23.352;2022-07-29T04:29:10;20.73;;;10.45;;
41233;SDS011;26968;42.686;23.352;2022-07-29T04:31:37;17.63;;;11.27;;
41233;SDS011;26968;42.686;23.352;2022-07-29T04:34:02;16.42;;;10.70;;
41233;SDS011;26968;42.686;23.352;2022-07-29T04:36:28;17.85;;;10.30;;
41233;SDS011;26968;42.686;23.352;2022-07-29T04:38:53;18.17;;;10.65;;
41233;SDS011;26968;42.686;23.352;2022-07-29T04:41:19;19.13;;;11.10;;
41233;SDS011;26968;42.686;23.352;2022-07-29T04:43:44;16.17;;;10.77;;
41233;SDS011;26968;42.686;23.352;2022-07-29T04:46:10;16.85;;;10.35;;
41233;SDS011;26968;42.686;23.352;2022-07-29T04:48:35;18.40;;;10.32;;
41233;SDS011;26968;42.686;23.352;2022-07-29T04:51:00;15.80;;;9.80;;
41233;SDS011;26968;42.686;23.352;2022-07-29T04:53:26;11.48;;;9.23;;
41233;SDS011;26968;42.686;23.352;2022-07-29T04:55:51;14.63;;;8.98;;
41233;SDS011;26968;42.686;23.352;2022-07-29T04:58:17;17.42;;;9.63;;
41233;SDS011;26968;42.686;23.352;2022-07-29T05:00:42;11.77;;;8.77;;
41233;SDS011;26968;42.686;23.352;2022-07-29T05:03:08;16.15;;;9.18;;
41233;SDS011;26968;42.686;23.352;2022-07-29T05:05:33;13.43;;;9.48;;
41233;SDS011;26968;42.686;23.352;2022-07-29T05:07:59;16.08;;;9.07;;
41233;SDS011;26968;42.686;23.352;2022-07-29T05:10:24;14.02;;;9.57;;
41233;SDS011;26968;42.686;23.352;2022-07-29T05:12:50;18.55;;;10.32;;
41233;SDS011;26968;42.686;23.352;2022-07-29T05:15:15;16.52;;;10.13;;
41233;SDS011;26968;42.686;23.352;2022-07-29T05:17:42;18.20;;;9.85;;
41233;SDS011;26968;42.686;23.352;2022-07-29T05:20:08;14.50;;;10.18;;
41233;SDS011;26968;42.686;23.352;2022-07-29T05:22:34;20.20;;;10.27;;
41233;SDS011;26968;42.686;23.352;2022-07-29T05:24:59;15.95;;;8.93;;
41233;SDS011;26968;42.686;23.352;2022-07-29T05:27:24;16.05;;;9.25;;
41233;SDS011;26968;42.686;23.352;2022-07-29T05:29:50;21.58;;;9.00;;
41233;SDS011;26968;42.686;23.352;2022-07-29T05:32:16;13.80;;;8.13;;
41233;SDS011;26968;42.686;23.352;2022-07-29T05:34:41;19.23;;;8.50;;
41233;SDS011;26968;42.686;23.352;2022-07-29T05:37:07;18.75;;;9.07;;
41233;SDS011;26968;42.686;23.352;2022-07-29T05:39:32;12.18;;;7.80;;
41233;SDS011;26968;42.686;23.352;2022-07-29T05:41:58;8.73;;;6.60;;
41233;SDS011;26968;42.686;23.352;2022-07-29T05:44:23;12.95;;;7.53;;
41233;SDS011;26968;42.686;23.352;2022-07-29T05:46:49;14.20;;;7.45;;
41233;SDS011;26968;42.686;23.352;2022-07-29T05:49:14;11.98;;;6.32;;
41233;SDS011;26968;42.686;23.352;2022-07-29T05:51:40;10.27;;;5.65;;
41233;SDS011;26968;42.686;23.352;2022-07-29T05:54:05;9.88;;;6.82;;
41233;SDS011;26968;42.686;23.352;2022-07-29T05:56:31;10.85;;;6.72;;
41233;SDS011;26968;42.686;23.352;2022-07-29T05:58:56;8.50;;;5.85;;
41233;SDS011;26968;42.686;23.352;2022-07-29T06:01:22;12.23;;;6.82;;
41233;SDS011;26968;42.686;23.352;2022-07-29T06:03:47;11.55;;;7.22;;
41233;SDS011;26968;42.686;23.352;2022-07-29T06:06:12;10.52;;;6.78;;
41233;SDS011;26968;42.686;23.352;2022-07-29T06:08:38;12.02;;;7.32;;
41233;SDS011;26968;42.686;23.352;2022-07-29T06:11:05;14.98;;;6.72;;
41233;SDS011;26968;42.686;23.352;2022-07-29T06:13:32;11.45;;;7.07;;
41233;SDS011;26968;42.686;23.352;2022-07-29T06:15:57;11.60;;;6.97;;
41233;SDS011;26968;42.686;23.352;2022-07-29T06:18:23;17.25;;;8.07;;
41233;SDS011;26968;42.686;23.352;2022-07-29T06:20:52;14.23;;;6.95;;
41233;SDS011;26968;42.686;23.352;2022-07-29T06:23:18;17.85;;;6.82;;
41233;SDS011;26968;42.686;23.352;2022-07-29T06:25:44;12.23;;;6.80;;
41233;SDS011;26968;42.686;23.352;2022-07-29T06:28:09;10.80;;;7.78;;
41233;SDS011;26968;42.686;23.352;2022-07-29T06:30:35;10.10;;;6.97;;
41233;SDS011;26968;42.686;23.352;2022-07-29T06:33:00;13.38;;;6.93;;
41233;SDS011;26968;42.686;23.352;2022-07-29T06:35:27;18.05;;;7.63;;
41233;SDS011;26968;42.686;23.352;2022-07-29T06:37:53;16.55;;;7.18;;
41233;SDS011;26968;42.686;23.352;2022-07-29T06:40:18;15.85;;;7.10;;
41233;SDS011;26968;42.686;23.352;2022-07-29T06:43:02;10.57;;;6.63;;
41233;SDS011;26968;42.686;23.352;2022-07-29T06:45:28;10.73;;;6.47;;
41233;SDS011;26968;42.686;23.352;2022-07-29T06:47:53;12.95;;;6.18;;
41233;SDS011;26968;42.686;23.352;2022-07-29T06:50:19;9.60;;;6.15;;
41233;SDS011;26968;42.686;23.352;2022-07-29T06:52:45;9.60;;;6.25;;
41233;SDS011;26968;42.686;23.352;2022-07-29T06:55:10;10.85;;;6.38;;
41233;SDS011;26968;42.686;23.352;2022-07-29T06:57:36;16.35;;;6.22;;
41233;SDS011;26968;42.686;23.352;2022-07-29T07:00:01;9.35;;;6.35;;
41233;SDS011;26968;42.686;23.352;2022-07-29T07:02:29;12.25;;;5.38;;
41233;SDS011;26968;42.686;23.352;2022-07-29T07:04:55;11.30;;;5.30;;
41233;SDS011;26968;42.686;23.352;2022-07-29T07:07:20;8.85;;;6.03;;
41233;SDS011;26968;42.686;23.352;2022-07-29T07:09:46;10.23;;;6.32;;
41233;SDS011;26968;42.686;23.352;2022-07-29T07:12:11;10.15;;;6.18;;
41233;SDS011;26968;42.686;23.352;2022-07-29T07:14:37;9.50;;;5.82;;
41233;SDS011;26968;42.686;23.352;2022-07-29T07:17:02;15.10;;;6.22;;
41233;SDS011;26968;42.686;23.352;2022-07-29T07:19:28;18.20;;;6.60;;
41233;SDS011;26968;42.686;23.352;2022-07-29T07:21:54;10.20;;;5.72;;
41233;SDS011;26968;42.686;23.352;2022-07-29T07:24:19;11.52;;;5.80;;
41233;SDS011;26968;42.686;23.352;2022-07-29T07:26:45;9.20;;;5.32;;
41233;SDS011;26968;42.686;23.352;2022-07-29T07:29:10;7.25;;;5.40;;
41233;SDS011;26968;42.686;23.352;2022-07-29T07:31:36;9.35;;;5.22;;
41233;SDS011;26968;42.686;23.352;2022-07-29T07:34:02;10.60;;;5.18;;
41233;SDS011;26968;42.686;23.352;2022-07-29T07:36:28;9.55;;;5.30;;
41233;SDS011;26968;42.686;23.352;2022-07-29T07:38:53;11.60;;;5.88;;
41233;SDS011;26968;42.686;23.352;2022-07-29T07:41:20;8.48;;;5.43;;
41233;SDS011;26968;42.686;23.352;2022-07-29T07:43:46;13.65;;;6.28;;
41233;SDS011;26968;42.686;23.352;2022-07-29T07:46:11;9.85;;;5.32;;
41233;SDS011;26968;42.686;23.352;2022-07-29T07:48:37;11.65;;;5.28;;
41233;SDS011;26968;42.686;23.352;2022-07-29T07:51:02;11.18;;;5.28;;
41233;SDS011;26968;42.686;23.352;2022-07-29T07:53:28;9.93;;;5.43;;
41233;SDS011;26968;42.686;23.352;2022-07-29T07:55:54;8.88;;;4.97;;
41233;SDS011;26968;42.686;23.352;2022-07-29T07:58:20;8.60;;;4.90;;
41233;SDS011;26968;42.686;23.352;2022-07-29T08:00:46;7.07;;;4.68;;
41233;SDS011;26968;42.686;23.352;2022-07-29T08:03:12;7.00;;;4.68;;
41233;SDS011;26968;42.686;23.352;2022-07-29T08:05:38;9.55;;;4.07;;
41233;SDS011;26968;42.686;23.352;2022-07-29T08:08:04;10.40;;;4.90;;
41233;SDS011;26968;42.686;23.352;2022-07-29T08:10:30;7.25;;;4.72;;
41233;SDS011;26968;42.686;23.352;2022-07-29T08:13:14;9.00;;;5.20;;
41233;SDS011;26968;42.686;23.352;2022-07-29T08:15:39;8.93;;;4.80;;
41233;SDS011;26968;42.686;23.352;2022-07-29T08:18:06;7.45;;;4.50;;
41233;SDS011;26968;42.686;23.352;2022-07-29T08:20:32;9.07;;;4.50;;
41233;SDS011;26968;42.686;23.352;2022-07-29T08:23:00;8.02;;;4.70;;
41233;SDS011;26968;42.686;23.352;2022-07-29T08:25:27;9.38;;;4.88;;
41233;SDS011;26968;42.686;23.352;2022-07-29T08:27:52;8.85;;;4.75;;
41233;SDS011;26968;42.686;23.352;2022-07-29T08:30:17;8.40;;;4.75;;
41233;SDS011;26968;42.686;23.352;2022-07-29T08:32:43;8.40;;;5.57;;
41233;SDS011;26968;42.686;23.352;2022-07-29T08:35:08;11.80;;;4.97;;
41233;SDS011;26968;42.686;23.352;2022-07-29T08:37:34;6.55;;;4.30;;
41233;SDS011;26968;42.686;23.352;2022-07-29T08:39:59;6.03;;;4.78;;
41233;SDS011;26968;42.686;23.352;2022-07-29T08:42:25;7.75;;;4.28;;
41233;SDS011;26968;42.686;23.352;2022-07-29T08:44:50;4.15;;;3.50;;
41233;SDS011;26968;42.686;23.352;2022-07-29T08:47:16;5.93;;;3.53;;
41233;SDS011;26968;42.686;23.352;2022-07-29T08:49:42;5.43;;;3.95;;
41233;SDS011;26968;42.686;23.352;2022-07-29T08:52:10;5.88;;;3.53;;
41233;SDS011;26968;42.686;23.352;2022-07-29T08:54:37;5.68;;;3.67;;
41233;SDS011;26968;42.686;23.352;2022-07-29T08:57:08;6.50;;;3.35;;
41233;SDS011;26968;42.686;23.352;2022-07-29T08:59:34;8.57;;;4.28;;
41233;SDS011;26968;42.686;23.352;2022-07-29T09:02:02;9.07;;;4.18;;
41233;SDS011;26968;42.686;23.352;2022-07-29T09:04:29;6.50;;;4.03;;
41233;SDS011;26968;42.686;23.352;2022-07-29T09:06:58;8.15;;;3.50;;
41233;SDS011;26968;42.686;23.352;2022-07-29T09:09:26;10.93;;;4.18;;
41233;SDS011;26968;42.686;23.352;2022-07-29T09:11:51;5.80;;;3.60;;
41233;SDS011;26968;42.686;23.352;2022-07-29T09:14:18;5.75;;;3.47;;
41233;SDS011;26968;42.686;23.352;2022-07-29T09:16:48;6.53;;;3.40;;
41233;SDS011;26968;42.686;23.352;2022-07-29T09:19:19;6.63;;;3.53;;
41233;SDS011;26968;42.686;23.352;2022-07-29T09:21:45;5.63;;;3.72;;
41233;SDS011;26968;42.686;23.352;2022-07-29T09:24:23;11.18;;;3.78;;
41233;SDS011;26968;42.686;23.352;2022-07-29T09:27:11;7.53;;;3.40;;
41233;SDS011;26968;42.686;23.352;2022-07-29T09:32:53;4.97;;;3.95;;
41233;SDS011;26968;42.686;23.352;2022-07-29T09:35:25;7.93;;;4.40;;
41233;SDS011;26968;42.686;23.352;2022-07-29T09:37:51;5.25;;;3.67;;
41233;SDS011;26968;42.686;23.352;2022-07-29T09:40:18;9.38;;;4.55;;
41233;SDS011;26968;42.686;23.352;2022-07-29T09:42:45;6.68;;;3.85;;
41233;SDS011;26968;42.686;23.352;2022-07-29T09:45:11;8.23;;;5.35;;
41233;SDS011;26968;42.686;23.352;2022-07-29T09:50:07;6.78;;;4.57;;
41233;SDS011;26968;42.686;23.352;2022-07-29T09:52:41;10.82;;;4.43;;
41233;SDS011;26968;42.686;23.352;2022-07-29T09:55:10;4.50;;;3.58;;
41233;SDS011;26968;42.686;23.352;2022-07-29T09:57:36;6.32;;;3.95;;
41233;SDS011;26968;42.686;23.352;2022-07-29T10:00:08;4.32;;;3.20;;
41233;SDS011;26968;42.686;23.352;2022-07-29T10:02:40;8.98;;;3.35;;
41233;SDS011;26968;42.686;23.352;2022-07-29T10:05:24;7.72;;;3.42;;
41233;SDS011;26968;42.686;23.352;2022-07-29T10:07:57;3.80;;;3.05;;
41233;SDS011;26968;42.686;23.352;2022-07-29T10:10:27;6.78;;;3.30;;
41233;SDS011;26968;42.686;23.352;2022-07-29T10:12:56;10.35;;;3.53;;
41233;SDS011;26968;42.686;23.352;2022-07-29T10:15:28;3.25;;;2.50;;
41233;SDS011;26968;42.686;23.352;2022-07-29T10:17:56;3.65;;;2.70;;
41233;SDS011;26968;42.686;23.352;2022-07-29T10:20:22;5.68;;;2.92;;
41233;SDS011;26968;42.686;23.352;2022-07-29T10:22:48;6.03;;;2.70;;
41233;SDS011;26968;42.686;23.352;2022-07-29T10:25:15;5.40;;;2.80;;
41233;SDS011;26968;42.686;23.352;2022-07-29T10:27:42;4.80;;;2.40;;
41233;SDS011;26968;42.686;23.352;2022-07-29T10:30:10;5.10;;;2.72;;
41233;SDS011;26968;42.686;23.352;2022-07-29T10:38:05;6.53;;;2.65;;
41233;SDS011;26968;42.686;23.352;2022-07-29T10:41:33;3.42;;;2.65;;
41233;SDS011;26968;42.686;23.352;2022-07-29T10:46:48;5.32;;;3.08;;
41233;SDS011;26968;42.686;23.352;2022-07-29T10:49:19;3.58;;;2.63;;
41233;SDS011;26968;42.686;23.352;2022-07-29T10:54:36;4.32;;;2.58;;
41233;SDS011;26968;42.686;23.352;2022-07-29T10:59:41;4.68;;;3.10;;
41233;SDS011;26968;42.686;23.352;2022-07-29T11:07:31;6.82;;;2.83;;
41233;SDS011;26968;42.686;23.352;2022-07-29T11:15:08;5.82;;;3.00;;
41233;SDS011;26968;42.686;23.352;2022-07-29T11:31:49;8.00;;;4.47;;
41233;SDS011;26968;42.686;23.352;2022-07-29T11:39:30;8.25;;;3.20;;
41233;SDS011;26968;42.686;23.352;2022-07-29T11:44:59;7.70;;;3.90;;
41233;SDS011;26968;42.686;23.352;2022-07-29T11:47:32;6.75;;;3.17;;
41233;SDS011;26968;42.686;23.352;2022-07-29T11:50:02;11.10;;;3.67;;
41233;SDS011;26968;42.686;23.352;2022-07-29T11:52:35;18.83;;;4.45;;
41233;SDS011;26968;42.686;23.352;2022-07-29T11:55:15;16.38;;;3.83;;
41233;SDS011;26968;42.686;23.352;2022-07-29T11:57:45;36.85;;;5.60;;
41233;SDS011;26968;42.686;23.352;2022-07-29T12:00:12;47.63;;;5.45;;
41233;SDS011;26968;42.686;23.352;2022-07-29T12:02:55;11.63;;;4.40;;
41233;SDS011;26968;42.686;23.352;2022-07-29T12:05:29;40.50;;;6.15;;
41233;SDS011;26968;42.686;23.352;2022-07-29T12:07:58;67.55;;;7.53;;
41233;SDS011;26968;42.686;23.352;2022-07-29T12:10:30;55.75;;;6.13;;
41233;SDS011;26968;42.686;23.352;2022-07-29T12:12:55;17.08;;;4.60;;
41233;SDS011;26968;42.686;23.352;2022-07-29T12:15:21;9.93;;;4.35;;
41233;SDS011;26968;42.686;23.352;2022-07-29T12:17:48;13.07;;;4.72;;
41233;SDS011;26968;42.686;23.352;2022-07-29T12:20:21;9.95;;;3.80;;
41233;SDS011;26968;42.686;23.352;2022-07-29T12:22:49;6.47;;;3.90;;
41233;SDS011;26968;42.686;23.352;2022-07-29T12:25:15;15.13;;;3.88;;
41233;SDS011;26968;42.686;23.352;2022-07-29T12:27:42;11.48;;;4.40;;
41233;SDS011;26968;42.686;23.352;2022-07-29T12:30:14;9.05;;;5.00;;
41233;SDS011;26968;42.686;23.352;2022-07-29T12:32:45;7.07;;;3.85;;
41233;SDS011;26968;42.686;23.352;2022-07-29T12:35:14;13.38;;;4.13;;
41233;SDS011;26968;42.686;23.352;2022-07-29T12:37:44;13.57;;;4.63;;
41233;SDS011;26968;42.686;23.352;2022-07-29T12:40:11;11.05;;;4.72;;
41233;SDS011;26968;42.686;23.352;2022-07-29T12:42:39;8.23;;;3.78;;
41233;SDS011;26968;42.686;23.352;2022-07-29T12:45:05;8.30;;;4.43;;
41233;SDS011;26968;42.686;23.352;2022-07-29T12:47:31;9.18;;;4.30;;
41233;SDS011;26968;42.686;23.352;2022-07-29T12:50:07;6.78;;;4.65;;
41233;SDS011;26968;42.686;23.352;2022-07-29T12:52:40;7.43;;;4.22;;
41233;SDS011;26968;42.686;23.352;2022-07-29T12:55:06;7.40;;;3.97;;
41233;SDS011;26968;42.686;23.352;2022-07-29T12:57:32;4.38;;;3.80;;
41233;SDS011;26968;42.686;23.352;2022-07-29T13:00:10;4.45;;;4.03;;
41233;SDS011;26968;42.686;23.352;2022-07-29T13:02:38;9.02;;;4.10;;
41233;SDS011;26968;42.686;23.352;2022-07-29T13:05:04;7.93;;;4.47;;
41233;SDS011;26968;42.686;23.352;2022-07-29T13:07:33;6.40;;;4.72;;
41233;SDS011;26968;42.686;23.352;2022-07-29T13:10:16;4.53;;;4.13;;
41233;SDS011;26968;42.686;23.352;2022-07-29T13:13:05;5.38;;;4.30;;
41233;SDS011;26968;42.686;23.352;2022-07-29T13:15:33;7.57;;;3.70;;
41233;SDS011;26968;42.686;23.352;2022-07-29T13:17:59;8.50;;;4.13;;
41233;SDS011;26968;42.686;23.352;2022-07-29T13:20:26;7.68;;;4.07;;
41233;SDS011;26968;42.686;23.352;2022-07-29T13:22:54;5.45;;;4.78;;
41233;SDS011;26968;42.686;23.352;2022-07-29T13:25:28;6.57;;;3.85;;
41233;SDS011;26968;42.686;23.352;2022-07-29T13:27:55;3.50;;;3.20;;
41233;SDS011;26968;42.686;23.352;2022-07-29T13:30:22;5.40;;;3.80;;
41233;SDS011;26968;42.686;23.352;2022-07-29T13:32:48;4.45;;;4.05;;
41233;SDS011;26968;42.686;23.352;2022-07-29T13:35:14;5.18;;;4.00;;
41233;SDS011;26968;42.686;23.352;2022-07-29T13:37:39;8.23;;;3.45;;
41233;SDS011;26968;42.686;23.352;2022-07-29T13:40:06;7.97;;;3.53;;
41233;SDS011;26968;42.686;23.352;2022-07-29T13:42:32;6.97;;;3.42;;
41233;SDS011;26968;42.686;23.352;2022-07-29T13:44:59;4.80;;;3.58;;
41233;SDS011;26968;42.686;23.352;2022-07-29T13:47:26;3.70;;;3.35;;
41233;SDS011;26968;42.686;23.352;2022-07-29T13:49:52;5.03;;;3.20;;
41233;SDS011;26968;42.686;23.352;2022-07-29T13:52:18;7.25;;;3.70;;
41233;SDS011;26968;42.686;23.352;2022-07-29T13:54:44;3.47;;;3.17;;
41233;SDS011;26968;42.686;23.352;2022-07-29T13:57:10;5.00;;;3.60;;
41233;SDS011;26968;42.686;23.352;2022-07-29T13:59:36;5.93;;;3.92;;
41233;SDS011;26968;42.686;23.352;2022-07-29T14:02:02;4.72;;;3.53;;
41233;SDS011;26968;42.686;23.352;2022-07-29T14:04:28;5.07;;;3.70;;
41233;SDS011;26968;42.686;23.352;2022-07-29T14:06:53;8.38;;;3.80;;
41233;SDS011;26968;42.686;23.352;2022-07-29T14:09:19;5.95;;;3.47;;
41233;SDS011;26968;42.686;23.352;2022-07-29T14:11:44;3.55;;;3.25;;
41233;SDS011;26968;42.686;23.352;2022-07-29T14:14:10;4.90;;;3.33;;
41233;SDS011;26968;42.686;23.352;2022-07-29T14:16:36;7.20;;;3.25;;
41233;SDS011;26968;42.686;23.352;2022-07-29T14:19:02;4.60;;;3.45;;
41233;SDS011;26968;42.686;23.352;2022-07-29T14:21:27;3.90;;;3.60;;
41233;SDS011;26968;42.686;23.352;2022-07-29T14:23:53;7.70;;;4.05;;
41233;SDS011;26968;42.686;23.352;2022-07-29T14:26:19;6.15;;;3.60;;
41233;SDS011;26968;42.686;23.352;2022-07-29T14:28:46;5.43;;;3.40;;
41233;SDS011;26968;42.686;23.352;2022-07-29T14:31:11;3.88;;;3.45;;
41233;SDS011;26968;42.686;23.352;2022-07-29T14:33:37;5.18;;;3.10;;
41233;SDS011;26968;42.686;23.352;2022-07-29T14:36:03;6.68;;;3.78;;
41233;SDS011;26968;42.686;23.352;2022-07-29T14:38:28;5.03;;;4.18;;
41233;SDS011;26968;42.686;23.352;2022-07-29T14:40:54;6.88;;;3.42;;
41233;SDS011;26968;42.686;23.352;2022-07-29T14:43:22;8.07;;;4.15;;
41233;SDS011;26968;42.686;23.352;2022-07-29T14:45:47;4.55;;;3.20;;
41233;SDS011;26968;42.686;23.352;2022-07-29T14:48:13;9.45;;;3.90;;
41233;SDS011;26968;42.686;23.352;2022-07-29T14:50:38;4.13;;;3.60;;
41233;SDS011;26968;42.686;23.352;2022-07-29T14:53:04;6.47;;;3.78;;
41233;SDS011;26968;42.686;23.352;2022-07-29T14:55:29;5.75;;;4.03;;
41233;SDS011;26968;42.686;23.352;2022-07-29T14:57:55;5.03;;;3.60;;
41233;SDS011;26968;42.686;23.352;2022-07-29T15:00:21;7.60;;;3.80;;
41233;SDS011;26968;42.686;23.352;2022-07-29T15:02:47;5.72;;;3.67;;
41233;SDS011;26968;42.686;23.352;2022-07-29T15:05:13;4.20;;;3.80;;
41233;SDS011;26968;42.686;23.352;2022-07-29T15:07:38;4.43;;;3.75;;
41233;SDS011;26968;42.686;23.352;2022-07-29T15:10:04;5.28;;;4.18;;
41233;SDS011;26968;42.686;23.352;2022-07-29T15:12:30;6.22;;;4.20;;
41233;SDS011;26968;42.686;23.352;2022-07-29T15:14:56;5.32;;;3.90;;
41233;SDS011;26968;42.686;23.352;2022-07-29T15:17:21;7.30;;;3.85;;
41233;SDS011;26968;42.686;23.352;2022-07-29T15:19:47;5.70;;;3.55;;
41233;SDS011;26968;42.686;23.352;2022-07-29T15:22:12;6.53;;;4.13;;
41233;SDS011;26968;42.686;23.352;2022-07-29T15:24:37;5.63;;;3.72;;
41233;SDS011;26968;42.686;23.352;2022-07-29T15:27:03;5.50;;;3.97;;
41233;SDS011;26968;42.686;23.352;2022-07-29T15:29:29;4.75;;;3.60;;
41233;SDS011;26968;42.686;23.352;2022-07-29T15:31:55;5.05;;;4.32;;
41233;SDS011;26968;42.686;23.352;2022-07-29T15:34:20;4.45;;;3.80;;
41233;SDS011;26968;42.686;23.352;2022-07-29T15:36:48;6.75;;;4.20;;
41233;SDS011;26968;42.686;23.352;2022-07-29T15:39:14;5.07;;;3.80;;
41233;SDS011;26968;42.686;23.352;2022-07-29T15:41:40;5.45;;;4.03;;